Time;durP1;ratioP1;P1;durP2;ratioP2;P2;SDS_P1;SDS_P2;PMS_P1;PMS_P2;Temp;Humidity;BMP_temperature;BMP_pressure;BME280_temperature;BME280_humidity;BME280_pressure;Samples;Min_cycle;Max_cycle;Signal;HPM_P1;HPM_P2
2022/05/10 00:01:45;;;;;;;;;;;;;;;-144.99;50.00;52276.88;5016979;28;19932;-62
2022/05/10 00:04:11;;;;;;;;;;;;;;;-144.99;49.95;52252.44;5020929;28;19932;-63
2022/05/10 00:06:39;;;;;;;;;;;;;;;-144.99;50.12;52260.56;5021690;28;19925;-61
2022/05/10 00:09:06;;;;;;;;;;;;;;;-144.99;50.33;52252.44;5018056;28;19925;-62
2022/05/10 00:11:32;;;;;;;;;;;;;;;-144.99;50.59;52268.72;5018374;28;20283;-62
2022/05/10 00:13:59;;;;;;;;;;;;;;;-144.99;50.45;52264.66;5008882;28;19926;-63
2022/05/10 00:16:25;;;;;;;;;;;;;;;-144.99;50.58;52272.81;4999276;28;19926;-63
2022/05/10 00:18:53;;;;;;;;;;;;;;;-144.99;50.60;52260.56;4997749;28;19926;-63
2022/05/10 00:21:22;;;;;;;;;;;;;;;-144.99;50.90;52240.19;5002945;28;19925;-62
2022/05/10 00:23:48;;;;;;;;;;;;;;;-144.99;50.94;52240.19;5006896;28;19926;-65
2022/05/10 00:26:15;;;;;;;;;;;;;;;-144.99;51.00;52236.13;5008121;28;19926;-64
2022/05/10 00:28:41;;;;;;;;;;;;;;;-144.99;51.14;52260.56;5006305;28;19925;-65
2022/05/10 00:31:09;;;;;;;;;;;;;;;-144.99;51.19;52268.72;5009767;28;19934;-63
2022/05/10 00:33:37;;;;;;;;;;;;;;;-144.99;51.34;52285.03;4997410;28;20100;-63
2022/05/10 00:36:06;;;;;;;;;;;;;;;-144.99;51.48;52256.50;5001739;28;20020;-64
2022/05/10 00:38:33;;;;;;;;;;;;;;;-144.99;51.63;52256.50;5008313;28;19925;-63
2022/05/10 00:41:04;;;;;;;;;;;;;;;-144.99;51.70;52236.13;5012959;28;19932;-63
2022/05/10 00:43:32;;;;;;;;;;;;;;;-144.99;51.82;52307.47;5012537;28;20295;-63
2022/05/10 00:46:01;;;;;;;;;;;;;;;-144.99;51.85;52260.56;5004685;28;19929;-62
2022/05/10 00:48:31;;;;;;;;;;;;;;;-144.99;51.74;52266.69;5005798;28;19937;-62
2022/05/10 00:51:00;;;;;;;;;;;;;;;-144.99;52.02;52272.81;5008456;28;20503;-63
2022/05/10 00:53:30;;;;;;;;;;;;;;;-144.99;51.77;52244.28;5016150;28;19937;-63
2022/05/10 00:56:00;;;;;;;;;;;;;;;-144.99;52.11;52250.38;5010605;28;19925;-63
2022/05/10 00:58:32;;;;;;;;;;;;;;;-144.99;52.21;52264.66;5008309;28;19933;-64
2022/05/10 01:01:00;;;;;;;;;;;;;;;-144.99;52.37;52266.69;5018815;28;19932;-66
2022/05/10 01:03:28;;;;;;;;;;;;;;;-144.99;52.30;52264.66;5014891;28;20020;-66
2022/05/10 01:05:58;;;;;;;;;;;;;;;-144.99;52.40;52248.34;5008545;28;19925;-65
2022/05/10 01:08:26;;;;;;;;;;;;;;;-144.99;52.55;52244.28;5010395;28;19937;-65
2022/05/10 01:10:56;;;;;;;;;;;;;;;-144.99;52.68;52256.50;5017889;28;19956;-64
2022/05/10 01:13:25;;;;;;;;;;;;;;;-144.99;53.04;52232.03;5006144;28;19937;-62
2022/05/10 01:16:03;;;;;;;;;;;;;;;-144.99;53.03;52227.97;5006442;28;19964;-66
2022/05/10 01:18:29;;;;;;;;;;;;;;;-144.99;53.24;52272.81;5007085;28;20424;-64
2022/05/10 01:20:58;;;;;;;;;;;;;;;-144.99;53.33;52264.66;5008897;28;19941;-66
2022/05/10 01:23:35;;;;;;;;;;;;;;;-144.99;53.72;52276.88;5005585;28;19933;-65
2022/05/10 01:26:05;;;;;;;;;;;;;;;-144.99;53.58;52280.97;5006489;28;20278;-66
2022/05/10 01:28:35;;;;;;;;;;;;;;;-144.99;53.79;52293.19;5010788;28;19929;-68
2022/05/10 01:31:05;;;;;;;;;;;;;;;-144.99;53.80;52280.97;5002727;28;19926;-67
2022/05/10 01:33:33;;;;;;;;;;;;;;;-144.99;54.01;52248.34;5013558;28;20028;-67
2022/05/10 01:36:02;;;;;;;;;;;;;;;-144.99;53.91;52246.31;5003951;28;19929;-68
2022/05/10 01:38:32;;;;;;;;;;;;;;;-144.99;54.18;52280.97;4999401;28;20035;-68
2022/05/10 01:41:03;;;;;;;;;;;;;;;-144.99;54.45;52280.97;5004817;28;19926;-70
2022/05/10 01:43:38;;;;;;;;;;;;;;;-144.99;54.66;52276.88;5010310;28;19925;-68
2022/05/10 01:46:11;;;;;;;;;;;;;;;-144.99;54.79;52283.00;5001415;28;19925;-64
2022/05/10 01:48:39;;;;;;;;;;;;;;;-144.99;54.83;52244.28;5003112;28;19926;-65
2022/05/10 01:51:10;;;;;;;;;;;;;;;-144.99;54.92;52268.72;5012525;28;19929;-66
2022/05/10 01:53:37;;;;;;;;;;;;;;;-144.99;54.90;52280.97;5015153;28;19948;-65
2022/05/10 01:56:05;;;;;;;;;;;;;;;-144.99;55.10;52285.03;5014444;28;19925;-64
2022/05/10 01:58:33;;;;;;;;;;;;;;;-144.99;55.37;52276.88;5008285;28;20387;-64
2022/05/10 02:01:01;;;;;;;;;;;;;;;-144.99;55.39;52244.28;5015047;28;19929;-65
2022/05/10 02:03:34;;;;;;;;;;;;;;;-144.99;55.57;52264.66;5004246;28;19964;-66
2022/05/10 02:06:06;;;;;;;;;;;;;;;-144.99;55.80;52256.50;5006102;28;20310;-64
2022/05/10 02:08:35;;;;;;;;;;;;;;;-144.99;55.64;52252.44;5005743;28;19926;-64
2022/05/10 02:11:05;;;;;;;;;;;;;;;-144.99;55.87;52262.63;5004165;28;19926;-63
2022/05/10 02:13:35;;;;;;;;;;;;;;;-144.99;55.69;52262.63;5008352;28;19980;-64
2022/05/10 02:16:02;;;;;;;;;;;;;;;-144.99;55.99;52285.03;5019065;28;19925;-65
2022/05/10 02:18:33;;;;;;;;;;;;;;;-144.99;56.02;52280.97;5005118;28;19952;-61
2022/05/10 02:21:03;;;;;;;;;;;;;;;-144.99;56.06;52289.13;5009177;28;20337;-60
2022/05/10 02:23:31;;;;;;;;;;;;;;;-144.99;55.98;52270.78;5009188;28;19933;-59
2022/05/10 02:26:01;;;;;;;;;;;;;;;-144.99;56.25;52272.81;5013621;28;19925;-59
2022/05/10 02:28:35;;;;;;;;;;;;;;;-144.99;56.42;52309.50;5002184;28;19925;-59
2022/05/10 02:31:04;;;;;;;;;;;;;;;-144.99;56.43;52223.88;5005500;28;20402;-62
2022/05/10 02:33:31;;;;;;;;;;;;;;;-144.99;56.62;52219.81;5008966;28;19926;-60
2022/05/10 02:35:58;;;;;;;;;;;;;;;-144.99;56.72;52276.88;5012194;28;19926;-60
2022/05/10 02:38:26;;;;;;;;;;;;;;;-144.99;56.53;52272.81;5003069;28;19925;-61
2022/05/10 02:40:55;;;;;;;;;;;;;;;-144.99;56.57;52264.66;5005123;28;19926;-61
2022/05/10 02:43:24;;;;;;;;;;;;;;;-144.99;56.70;52250.38;5003567;28;19941;-60
2022/05/10 02:45:51;;;;;;;;;;;;;;;-144.99;56.59;52280.97;4994901;28;20304;-60
2022/05/10 02:48:21;;;;;;;;;;;;;;;-144.99;56.75;52268.72;5013664;28;19937;-61
2022/05/10 02:50:49;;;;;;;;;;;;;;;-144.99;57.17;52240.19;5009604;28;19936;-61
2022/05/10 02:53:15;;;;;;;;;;;;;;;-144.99;57.46;52260.56;5021164;28;19929;-60
2022/05/10 02:55:44;;;;;;;;;;;;;;;-144.99;57.78;52248.34;5021336;28;19925;-60
2022/05/10 02:58:15;;;;;;;;;;;;;;;-144.99;58.20;52264.66;5018437;28;20210;-60
2022/05/10 03:00:42;;;;;;;;;;;;;;;-144.99;58.59;52244.28;5014345;28;19932;-59
2022/05/10 03:03:13;;;;;;;;;;;;;;;-144.99;58.83;52260.56;5015461;28;19932;-59
2022/05/10 03:05:40;;;;;;;;;;;;;;;-144.99;59.08;52260.56;5021296;28;19931;-60
2022/05/10 03:08:07;;;;;;;;;;;;;;;-144.99;59.06;52256.50;5015219;28;20317;-59
2022/05/10 03:10:34;;;;;;;;;;;;;;;-144.99;59.11;52238.16;5014185;28;19925;-60
2022/05/10 03:13:01;;;;;;;;;;;;;;;-144.99;59.22;52252.44;5016770;28;19925;-60
2022/05/10 03:15:28;;;;;;;;;;;;;;;-144.99;59.28;52264.66;5011684;28;19991;-60
2022/05/10 03:17:54;;;;;;;;;;;;;;;-144.99;59.27;52211.66;5014104;28;20398;-59
2022/05/10 03:20:20;;;;;;;;;;;;;;;-144.99;59.63;52223.88;5015180;28;19934;-60
2022/05/10 03:22:47;;;;;;;;;;;;;;;-144.99;59.72;52258.53;5014713;28;19941;-59
2022/05/10 03:25:15;;;;;;;;;;;;;;;-144.99;60.20;52297.25;5013986;28;19936;-59
2022/05/10 03:27:42;;;;;;;;;;;;;;;-144.99;60.64;52236.13;5012027;28;20501;-59
2022/05/10 03:30:09;;;;;;;;;;;;;;;-144.99;60.79;52248.34;5015220;28;19925;-61
2022/05/10 03:32:35;;;;;;;;;;;;;;;-144.99;61.35;52260.56;5017129;28;20341;-60
2022/05/10 03:35:01;;;;;;;;;;;;;;;-144.99;61.45;52289.13;5020097;28;19929;-60
2022/05/10 03:37:29;;;;;;;;;;;;;;;-144.99;61.77;52250.38;5016160;28;19929;-61
2022/05/10 03:39:55;;;;;;;;;;;;;;;-144.99;61.54;52256.50;5014409;28;20032;-60
2022/05/10 03:42:23;;;;;;;;;;;;;;;-144.99;61.84;52238.16;5021077;28;19951;-61
2022/05/10 03:44:52;;;;;;;;;;;;;;;-144.99;62.12;52276.88;5021688;28;19925;-62
2022/05/10 03:47:18;;;;;;;;;;;;;;;-144.99;61.95;52280.97;5015123;28;19932;-63
2022/05/10 03:49:45;;;;;;;;;;;;;;;-144.99;62.18;52240.19;5015063;28;20354;-63
2022/05/10 03:52:11;;;;;;;;;;;;;;;-144.99;62.09;52240.19;5010435;28;20008;-63
2022/05/10 03:54:38;;;;;;;;;;;;;;;-144.99;62.32;52280.97;5017615;28;21027;-63
2022/05/10 03:57:05;;;;;;;;;;;;;;;-144.99;62.74;52260.56;5018569;28;19929;-63
2022/05/10 03:59:32;;;;;;;;;;;;;;;-144.99;63.05;52232.03;5010535;28;19929;-64
2022/05/10 04:01:59;;;;;;;;;;;;;;;-144.99;63.31;52252.44;5018194;28;19925;-65
2022/05/10 04:04:25;;;;;;;;;;;;;;;-144.99;63.63;52260.56;5018996;28;19925;-64
2022/05/10 04:06:52;;;;;;;;;;;;;;;-144.99;64.07;52276.88;5015028;28;19925;-65
2022/05/10 04:09:18;;;;;;;;;;;;;;;-144.99;63.89;52256.50;5013491;28;20302;-65
2022/05/10 04:11:45;;;;;;;;;;;;;;;-144.99;64.09;52240.19;5013061;28;19926;-64
2022/05/10 04:14:13;;;;;;;;;;;;;;;-144.99;64.33;52252.44;5008791;28;19926;-69
2022/05/10 04:16:41;;;;;;;;;;;;;;;-144.99;64.38;52272.81;4996870;28;19934;-66
2022/05/10 04:19:07;;;;;;;;;;;;;;;-144.99;65.02;52285.03;5010601;28;19930;-63
2022/05/10 04:21:34;;;;;;;;;;;;;;;-144.99;65.25;52223.88;5005898;28;20381;-66
2022/05/10 04:24:00;;;;;;;;;;;;;;;-144.99;65.57;52211.66;5011995;28;20345;-64
2022/05/10 04:26:27;;;;;;;;;;;;;;;-144.99;65.39;52264.66;5006119;28;19926;-64
2022/05/10 04:28:54;;;;;;;;;;;;;;;-144.99;64.99;52244.28;5019037;28;19976;-64
2022/05/10 04:31:21;;;;;;;;;;;;;;;-144.99;65.26;52252.44;5009535;28;19985;-63
2022/05/10 04:33:48;;;;;;;;;;;;;;;-144.99;65.52;52289.13;5019588;28;19960;-64
2022/05/10 04:36:15;;;;;;;;;;;;;;;-144.99;65.63;52219.81;5011989;28;19929;-64
2022/05/10 04:38:41;;;;;;;;;;;;;;;-144.99;65.35;52193.31;5011577;28;19925;-64
2022/05/10 04:41:27;;;;;;;;;;;;;;;-144.99;65.49;52268.72;5015236;28;19929;-65
2022/05/10 04:43:54;;;;;;;;;;;;;;;-144.99;65.66;52252.44;5015438;28;19925;-66
2022/05/10 04:46:20;;;;;;;;;;;;;;;-144.99;65.86;52211.66;5011593;28;20383;-64
2022/05/10 04:48:47;;;;;;;;;;;;;;;-144.99;65.66;52240.19;5005052;28;20588;-62
2022/05/10 04:51:14;;;;;;;;;;;;;;;-144.99;65.55;52256.50;5011205;28;19937;-64
2022/05/10 04:53:41;;;;;;;;;;;;;;;-144.99;65.48;52236.13;5014241;28;19925;-65
2022/05/10 04:56:07;;;;;;;;;;;;;;;-144.99;65.39;52195.34;5004675;28;19937;-65
2022/05/10 04:58:34;;;;;;;;;;;;;;;-144.99;65.11;52232.03;5013802;28;20383;-66
2022/05/10 05:01:02;;;;;;;;;;;;;;;-144.99;66.30;52211.66;5020930;28;20210;-63
2022/05/10 05:03:28;;;;;;;;;;;;;;;-144.99;65.73;52232.03;5014285;28;19937;-63
2022/05/10 05:05:55;;;;;;;;;;;;;;;-144.99;65.30;52215.75;5012524;28;19925;-70
2022/05/10 05:08:23;;;;;;;;;;;;;;;-144.99;65.32;52219.81;5012867;28;19934;-67
2022/05/10 05:10:49;;;;;;;;;;;;;;;-144.99;65.27;52183.13;5018655;28;19925;-67
2022/05/10 05:13:15;;;;;;;;;;;;;;;-144.99;65.14;52199.44;5011035;28;19929;-68
2022/05/10 05:15:42;;;;;;;;;;;;;;;-144.99;65.49;52195.34;4317484;28;10000683;-68
2022/05/10 05:18:09;;;;;;;;;;;;;;;-144.99;65.18;52248.34;5016522;28;20177;-69
2022/05/10 05:20:36;;;;;;;;;;;;;;;-144.99;64.69;52219.81;5019549;28;19929;-67
2022/05/10 05:23:08;;;;;;;;;;;;;;;-144.99;64.71;52248.34;5010118;28;19944;-68
2022/05/10 05:25:36;;;;;;;;;;;;;;;-144.99;63.96;52213.69;5006175;28;19955;-68
2022/05/10 05:28:03;;;;;;;;;;;;;;;-144.99;63.99;52201.47;5008708;28;20457;-69
2022/05/10 05:30:29;;;;;;;;;;;;;;;-144.99;64.04;52170.91;5008147;28;19945;-68
2022/05/10 05:32:56;;;;;;;;;;;;;;;-144.99;63.94;52211.66;5005697;28;19936;-68
2022/05/10 05:35:22;;;;;;;;;;;;;;;-144.99;63.61;52187.19;5009406;28;20016;-68
2022/05/10 05:37:49;;;;;;;;;;;;;;;-144.99;63.37;52207.59;5003529;28;19933;-68
2022/05/10 05:40:17;;;;;;;;;;;;;;;-144.99;63.10;52189.25;5010157;28;19926;-68
2022/05/10 05:42:45;;;;;;;;;;;;;;;-144.99;62.94;52195.34;5004548;28;19929;-67
2022/05/10 05:45:13;;;;;;;;;;;;;;;-144.99;62.88;52207.59;5010662;28;19936;-69
2022/05/10 05:47:40;;;;;;;;;;;;;;;-144.99;62.58;52199.44;5017245;28;19938;-68
2022/05/10 05:50:07;;;;;;;;;;;;;;;-144.99;62.51;52211.66;4998964;28;19940;-68
2022/05/10 05:52:34;;;;;;;;;;;;;;;-144.99;62.38;52183.13;5003928;28;19925;-68
2022/05/10 05:55:00;;;;;;;;;;;;;;;-144.99;61.67;52183.13;5005046;28;19937;-67
2022/05/10 05:57:27;;;;;;;;;;;;;;;-144.99;61.36;52183.13;5007762;28;19933;-68
2022/05/10 05:59:55;;;;;;;;;;;;;;;-144.99;61.20;52199.44;5009772;28;19929;-68
2022/05/10 06:02:22;;;;;;;;;;;;;;;-144.99;60.61;52166.81;5003437;28;20094;-68
2022/05/10 06:04:49;;;;;;;;;;;;;;;-144.99;60.33;52166.81;5011011;28;20768;-67
2022/05/10 06:07:16;;;;;;;;;;;;;;;-144.99;60.03;52170.91;5015543;28;19929;-70
2022/05/10 06:09:43;;;;;;;;;;;;;;;-144.99;59.35;52152.56;5016127;28;19960;-69
2022/05/10 06:12:11;;;;;;;;;;;;;;;-144.99;59.19;52191.28;5006337;28;19935;-67
2022/05/10 06:14:38;;;;;;;;;;;;;;;-144.99;58.81;52158.66;5017012;28;20003;-68
2022/05/10 06:17:06;;;;;;;;;;;;;;;-144.99;58.79;52154.59;5017740;28;19929;-68
2022/05/10 06:19:34;;;;;;;;;;;;;;;-144.99;58.26;52160.72;5018048;28;19929;-68
2022/05/10 06:22:00;;;;;;;;;;;;;;;-144.99;58.13;52166.81;5019635;28;19929;-68
2022/05/10 06:24:26;;;;;;;;;;;;;;;-144.99;58.35;52183.13;5017029;28;19952;-68
2022/05/10 06:26:53;;;;;;;;;;;;;;;-144.99;58.35;52203.50;5020058;28;19936;-67
2022/05/10 06:29:19;;;;;;;;;;;;;;;-144.99;57.61;52162.75;5020207;28;19932;-67
2022/05/10 06:31:47;;;;;;;;;;;;;;;-144.99;57.25;52164.78;5021552;28;20286;-67
2022/05/10 06:34:15;;;;;;;;;;;;;;;-144.99;57.76;52177.00;5016774;28;20390;-68
2022/05/10 06:36:42;;;;;;;;;;;;;;;-144.99;57.53;52177.00;5016869;28;20562;-69
2022/05/10 06:39:08;;;;;;;;;;;;;;;-144.99;57.96;52172.94;5013521;28;19925;-68
2022/05/10 06:41:35;;;;;;;;;;;;;;;-144.99;57.51;52205.53;5011679;28;20453;-67
2022/05/10 06:44:02;;;;;;;;;;;;;;;-144.99;57.55;52160.72;5018350;28;19929;-67
2022/05/10 06:46:32;;;;;;;;;;;;;;;-144.99;57.36;52203.50;5007906;28;20406;-69
2022/05/10 06:48:58;;;;;;;;;;;;;;;-144.99;57.41;52154.59;5017200;28;20401;-68
2022/05/10 06:51:26;;;;;;;;;;;;;;;-144.99;57.21;52154.59;5014121;28;19937;-68
2022/05/10 06:53:53;;;;;;;;;;;;;;;-144.99;57.57;52134.22;5009229;28;20302;-68
2022/05/10 06:56:20;;;;;;;;;;;;;;;-144.99;57.29;52134.22;5015448;28;20375;-69
2022/05/10 06:58:47;;;;;;;;;;;;;;;-144.99;57.85;52203.50;5018144;28;19925;-67
2022/05/10 07:01:13;;;;;;;;;;;;;;;-144.99;57.85;52162.75;4669061;28;10000312;-67
2022/05/10 07:03:40;;;;;;;;;;;;;;;-144.99;57.69;52146.44;5020123;28;19925;-65
2022/05/10 07:06:08;;;;;;;;;;;;;;;-144.99;57.50;52126.06;5011577;28;19948;-65
2022/05/10 07:08:36;;;;;;;;;;;;;;;-144.99;57.13;52148.47;5015915;28;19930;-65
2022/05/10 07:11:02;;;;;;;;;;;;;;;-144.99;57.30;52160.72;5010846;28;19929;-70
2022/05/10 07:13:30;;;;;;;;;;;;;;;-144.99;57.03;52154.59;5013443;28;19941;-69
2022/05/10 07:15:57;;;;;;;;;;;;;;;-144.99;57.23;52162.75;5013135;28;19932;-69
2022/05/10 07:18:23;;;;;;;;;;;;;;;-144.99;56.92;52113.84;5000760;28;20365;-69
2022/05/10 07:20:50;;;;;;;;;;;;;;;-144.99;56.87;52138.28;5012420;28;20334;-69
2022/05/10 07:23:19;;;;;;;;;;;;;;;-144.99;56.68;52105.69;5015807;28;19925;-69
2022/05/10 07:25:47;;;;;;;;;;;;;;;-144.99;56.31;52134.22;5004030;28;19929;-69
2022/05/10 07:28:14;;;;;;;;;;;;;;;-144.99;56.67;52126.06;5015440;28;20309;-70
2022/05/10 07:30:41;;;;;;;;;;;;;;;-144.99;56.43;52146.44;5011866;28;19933;-69
2022/05/10 07:33:08;;;;;;;;;;;;;;;-144.99;56.68;52138.28;5009457;28;19965;-69
2022/05/10 07:38:19;;;;;;;;;;;;;;;-144.99;57.06;52170.91;5008461;28;19935;-69
2022/05/10 07:40:48;;;;;;;;;;;;;;;-144.99;56.46;52158.66;5014627;28;19937;-70
2022/05/10 07:43:16;;;;;;;;;;;;;;;-144.99;56.18;52105.69;5012178;28;19936;-69
2022/05/10 07:45:43;;;;;;;;;;;;;;;-144.99;56.47;52126.06;5013871;28;19936;-69
2022/05/10 07:48:10;;;;;;;;;;;;;;;-144.99;56.42;52115.88;5007684;28;19934;-69
2022/05/10 07:50:36;;;;;;;;;;;;;;;-144.99;56.31;52134.22;5014650;28;19932;-70
2022/05/10 07:53:06;;;;;;;;;;;;;;;-144.99;56.34;52121.97;5012499;28;19925;-70
2022/05/10 07:55:32;;;;;;;;;;;;;;;-144.99;56.51;52136.25;5013079;28;20300;-70
2022/05/10 07:57:58;;;;;;;;;;;;;;;-144.99;56.45;52138.28;5008450;28;19925;-70
2022/05/10 08:00:26;;;;;;;;;;;;;;;-144.99;56.54;52138.28;5008980;28;19933;-69
2022/05/10 08:02:53;;;;;;;;;;;;;;;-144.99;56.32;52134.22;5011023;28;19932;-71
2022/05/10 08:05:21;;;;;;;;;;;;;;;-144.99;56.25;52124.03;5013062;28;19929;-70
2022/05/10 08:07:47;;;;;;;;;;;;;;;-144.99;55.57;52121.97;5017226;28;20400;-70
2022/05/10 08:10:14;;;;;;;;;;;;;;;-144.99;55.31;52121.97;5013713;28;20425;-69
2022/05/10 08:12:40;;;;;;;;;;;;;;;-144.99;54.76;52066.97;5017681;28;19929;-70
2022/05/10 08:15:08;;;;;;;;;;;;;;;-144.99;55.04;52119.94;5016692;28;19929;-68
2022/05/10 08:17:35;;;;;;;;;;;;;;;-144.99;54.98;52166.81;5019644;28;20026;-69
2022/05/10 08:20:02;;;;;;;;;;;;;;;-144.99;54.63;52130.13;5018603;28;19925;-68
2022/05/10 08:22:28;;;;;;;;;;;;;;;-144.99;54.74;52121.97;5014359;28;19933;-70
2022/05/10 08:24:55;;;;;;;;;;;;;;;-144.99;54.77;52152.56;5013516;28;19937;-69
2022/05/10 08:27:21;;;;;;;;;;;;;;;-144.99;55.13;52126.06;5013520;28;19934;-69
2022/05/10 08:29:47;;;;;;;;;;;;;;;-144.99;55.10;52136.25;5017611;28;20113;-69
2022/05/10 08:32:14;;;;;;;;;;;;;;;-144.99;54.94;52103.66;5018175;28;20422;-68
2022/05/10 08:34:41;;;;;;;;;;;;;;;-144.99;54.97;52162.75;5013077;28;19930;-69
2022/05/10 08:37:08;;;;;;;;;;;;;;;-144.99;54.66;52124.03;5018902;28;19929;-69
2022/05/10 08:39:35;;;;;;;;;;;;;;;-144.99;54.57;52126.06;5013766;28;19951;-70
2022/05/10 08:42:03;;;;;;;;;;;;;;;-144.99;54.65;52093.44;5011163;28;19926;-69
2022/05/10 08:44:32;;;;;;;;;;;;;;;-144.99;54.53;52085.31;5015833;28;19929;-69
2022/05/10 08:47:01;;;;;;;;;;;;;;;-144.99;54.15;52075.09;5007464;28;20575;-69
2022/05/10 08:49:33;;;;;;;;;;;;;;;-144.99;53.78;52117.91;5009798;28;19925;-69
2022/05/10 08:52:01;;;;;;;;;;;;;;;-144.99;53.78;52085.31;5012583;28;19929;-69
2022/05/10 08:54:30;;;;;;;;;;;;;;;-144.99;52.50;52085.31;5013265;28;19929;-69
2022/05/10 08:56:57;;;;;;;;;;;;;;;-144.99;52.37;52081.22;5009444;28;19933;-69
2022/05/10 08:59:28;;;;;;;;;;;;;;;-144.99;51.46;52075.09;5015906;28;19926;-68
2022/05/10 09:01:59;;;;;;;;;;;;;;;-144.99;51.63;52081.22;5013459;28;19929;-69
2022/05/10 09:04:33;;;;;;;;;;;;;;;-144.99;51.00;52052.69;5014888;28;19956;-70
2022/05/10 09:07:06;;;;;;;;;;;;;;;-144.99;49.46;52044.53;5015544;28;20361;-69
2022/05/10 09:09:34;;;;;;;;;;;;;;;-144.99;48.91;52028.22;5010148;28;19933;-69
2022/05/10 09:12:08;;;;;;;;;;;;;;;-144.99;48.33;52044.53;5013443;28;19936;-69
2022/05/10 09:14:36;;;;;;;;;;;;;;;-144.99;48.15;52044.53;5009072;28;19929;-69
2022/05/10 09:17:04;;;;;;;;;;;;;;;-144.99;47.75;52048.63;5016241;28;19929;-70
2022/05/10 09:19:40;;;;;;;;;;;;;;;-144.99;46.92;52020.09;5010911;28;19967;-68
2022/05/10 09:22:13;;;;;;;;;;;;;;;-144.99;46.32;52044.53;5013910;28;19925;-68
2022/05/10 09:24:46;;;;;;;;;;;;;;;-144.99;46.00;52069.00;5015022;28;19984;-68
2022/05/10 09:27:14;;;;;;;;;;;;;;;-144.99;46.24;52073.06;5016428;28;19932;-69
2022/05/10 09:29:44;;;;;;;;;;;;;;;-144.99;45.99;52040.47;5034689;22;19925;-69
2022/05/10 09:34:57;;;;;;;;;;;;;;;-144.99;45.16;52073.06;4677613;28;10001328;-67
2022/05/10 09:37:27;;;;;;;;;;;;;;;-144.99;44.25;52036.38;5030280;28;19929;-67
2022/05/10 09:40:03;;;;;;;;;;;;;;;-144.99;44.38;52009.91;5038998;28;19925;-67
2022/05/10 09:42:31;;;;;;;;;;;;;;;-144.99;43.41;52022.13;5019959;28;19925;-67
2022/05/10 09:44:59;;;;;;;;;;;;;;;-144.99;42.99;52007.84;5034141;28;19925;-67
2022/05/10 09:47:26;;;;;;;;;;;;;;;-144.99;43.42;52052.69;5024247;28;19925;-67
2022/05/10 09:49:52;;;;;;;;;;;;;;;-144.99;42.93;52024.16;5037695;28;19940;-68
2022/05/10 09:52:19;;;;;;;;;;;;;;;-144.99;41.77;52036.38;5033927;28;19933;-68
2022/05/10 09:54:50;;;;;;;;;;;;;;;-144.99;41.88;52003.78;5037217;28;19958;-67
2022/05/10 09:57:26;;;;;;;;;;;;;;;-144.99;43.15;52034.34;5031344;28;19995;-68
2022/05/10 09:59:52;;;;;;;;;;;;;;;-144.99;42.82;52011.94;5026794;28;19928;-68
2022/05/10 10:02:27;;;;;;;;;;;;;;;-144.99;42.46;52026.19;5033448;28;20320;-67
2022/05/10 10:04:53;;;;;;;;;;;;;;;-144.99;41.28;51999.69;5032951;28;19929;-67
2022/05/10 10:07:22;;;;;;;;;;;;;;;-144.99;41.08;51999.69;5026053;28;19932;-67
2022/05/10 10:09:51;;;;;;;;;;;;;;;-144.99;40.35;52003.78;5030574;28;19944;-67
2022/05/10 10:12:31;;;;;;;;;;;;;;;-144.99;39.53;51999.69;5029583;28;20390;-67
2022/05/10 10:14:57;;;;;;;;;;;;;;;-144.99;39.83;51979.31;5033720;28;20330;-67
2022/05/10 10:17:26;;;;;;;;;;;;;;;-144.99;39.71;51971.16;5027249;28;20388;-67
2022/05/10 10:19:55;;;;;;;;;;;;;;;-144.99;39.14;51995.63;5027554;28;19929;-67
2022/05/10 10:22:27;;;;;;;;;;;;;;;-144.99;39.23;51999.69;5030982;28;19929;-68
2022/05/10 10:24:57;;;;;;;;;;;;;;;-144.99;38.58;51983.41;5026174;28;19942;-68
2022/05/10 10:27:28;;;;;;;;;;;;;;;-144.99;38.64;52003.78;5027562;28;19932;-67
2022/05/10 10:29:56;;;;;;;;;;;;;;;-144.99;38.13;51960.97;5035373;28;20312;-68
2022/05/10 10:32:24;;;;;;;;;;;;;;;-144.99;37.82;52020.09;5033264;28;20378;-69
2022/05/10 10:34:53;;;;;;;;;;;;;;;-144.99;37.49;51981.38;5038891;28;19982;-69
2022/05/10 10:37:21;;;;;;;;;;;;;;;-144.99;37.26;51973.22;5030012;28;19994;-68
2022/05/10 10:39:52;;;;;;;;;;;;;;;-144.99;37.18;51973.22;5030320;28;19932;-70
2022/05/10 10:42:27;;;;;;;;;;;;;;;-144.99;37.01;51934.50;5025544;28;20142;-68
2022/05/10 10:44:56;;;;;;;;;;;;;;;-144.99;35.91;51975.25;5043341;28;19935;-68
2022/05/10 10:47:25;;;;;;;;;;;;;;;-144.99;35.75;51971.16;5034808;28;19929;-68
2022/05/10 10:49:54;;;;;;;;;;;;;;;-144.99;35.30;51918.19;5034445;28;19932;-69
2022/05/10 10:52:21;;;;;;;;;;;;;;;-144.99;35.46;51958.94;4684106;28;10000499;-68
2022/05/10 10:54:48;;;;;;;;;;;;;;;-144.99;35.54;51973.22;5032364;28;19929;-69
2022/05/10 10:57:27;;;;;;;;;;;;;;;-144.99;35.36;51975.25;5031313;28;20386;-69
2022/05/10 11:00:02;;;;;;;;;;;;;;;-144.99;35.36;51999.69;5033065;28;20321;-70
2022/05/10 11:02:48;;;;;;;;;;;;;;;-144.99;35.11;51999.69;5032543;28;20289;-70
2022/05/10 11:05:25;;;;;;;;;;;;;;;-144.99;34.96;51995.63;5032819;28;19936;-70
2022/05/10 11:07:55;;;;;;;;;;;;;;;-144.99;35.35;52028.22;5032866;28;19924;-70
2022/05/10 11:10:27;;;;;;;;;;;;;;;-144.99;35.38;52040.47;5039854;28;19925;-69
2022/05/10 11:13:00;;;;;;;;;;;;;;;-144.99;35.62;52016.00;5047569;28;19931;-68
2022/05/10 11:15:33;;;;;;;;;;;;;;;-144.99;35.34;51991.56;5048861;28;19924;-72
2022/05/10 11:18:08;;;;;;;;;;;;;;;-144.99;35.41;52028.22;5050401;28;19935;-72
2022/05/10 11:20:45;;;;;;;;;;;;;;;-144.99;34.96;52036.38;5035678;28;19936;-71
2022/05/10 11:23:15;;;;;;;;;;;;;;;-144.99;35.34;51977.28;5048604;28;20363;-68
2022/05/10 11:25:54;;;;;;;;;;;;;;;-144.99;34.49;51991.56;5054210;28;20297;-70
2022/05/10 11:28:39;;;;;;;;;;;;;;;-144.99;34.24;52040.47;5049291;28;19929;-69
2022/05/10 11:31:11;;;;;;;;;;;;;;;-144.99;33.73;52048.63;5035713;28;19951;-69
2022/05/10 11:33:43;;;;;;;;;;;;;;;-144.99;34.24;52034.34;5047475;28;19925;-70
2022/05/10 11:36:23;;;;;;;;;;;;;;;-144.99;34.69;52052.69;5054633;28;19924;-67
2022/05/10 11:39:07;;;;;;;;;;;;;;;-144.99;35.01;52020.09;5045474;28;19925;-70
2022/05/10 11:41:37;;;;;;;;;;;;;;;-144.99;34.61;52030.28;5034721;28;19925;-70
2022/05/10 11:44:12;;;;;;;;;;;;;;;-144.99;34.75;52036.38;5036409;28;19937;-70
2022/05/10 11:47:00;;;;;;;;;;;;;;;-144.99;34.87;52034.34;5032166;28;20020;-70
2022/05/10 11:49:42;;;;;;;;;;;;;;;-144.99;34.74;52044.53;5036673;28;19924;-70
2022/05/10 11:52:17;;;;;;;;;;;;;;;-144.99;34.88;52036.38;5037446;28;20296;-70
2022/05/10 11:54:54;;;;;;;;;;;;;;;-144.99;34.78;52030.28;5040663;28;19935;-69
2022/05/10 11:57:22;;;;;;;;;;;;;;;-144.99;34.61;52026.19;5036566;28;19933;-70
2022/05/10 11:59:48;;;;;;;;;;;;;;;-144.99;35.01;52020.09;5036315;28;19948;-70
2022/05/10 12:02:48;;;;;;;;;;;;;;;-144.99;35.09;52048.63;5033052;28;20420;-72
2022/05/10 12:05:27;;;;;;;;;;;;;;;-144.99;35.13;51999.69;4931661;29;20193;-72
2022/05/10 12:07:54;;;;;;;;;;;;;;;-144.99;35.16;52073.06;4930211;29;20313;-71
2022/05/10 12:10:29;;;;;;;;;;;;;;;-144.99;35.60;52077.16;4980610;28;19937;-70
2022/05/10 12:12:57;;;;;;;;;;;;;;;-144.99;35.79;52050.66;5037102;28;19992;-71
2022/05/10 12:21:20;;;;;;;;;;;;;;;-144.99;35.67;52062.88;5001348;28;19952;-70
2022/05/10 12:24:07;;;;;;;;;;;;;;;-144.99;35.86;52007.84;5038276;28;19924;-69
2022/05/10 12:26:36;;;;;;;;;;;;;;;-144.99;35.85;52048.63;5035662;28;20036;-70
2022/05/10 12:29:02;;;;;;;;;;;;;;;-144.99;36.30;52058.81;5031778;28;19929;-69
2022/05/10 12:31:50;;;;;;;;;;;;;;;-144.99;35.83;52048.63;5033069;28;20111;-69
2022/05/10 12:34:38;;;;;;;;;;;;;;;-144.99;36.07;52044.53;5041831;28;20408;-68
2022/05/10 12:37:25;;;;;;;;;;;;;;;-144.99;36.11;52077.16;5033680;28;20031;-69
2022/05/10 12:39:54;;;;;;;;;;;;;;;-144.99;36.21;52040.47;5032892;28;19925;-68
2022/05/10 12:42:24;;;;;;;;;;;;;;;-144.99;35.95;52044.53;5034525;28;19929;-69
2022/05/10 12:45:03;;;;;;;;;;;;;;;-144.99;36.49;52089.38;5033202;28;20313;-69
2022/05/10 12:47:51;;;;;;;;;;;;;;;-144.99;36.36;52040.47;5030065;28;19979;-70